createdAt,value
2019-04-26T00:00:41.748Z,95.90
2019-04-26T00:03:12.355Z,95.90
2019-04-26T00:05:41.994Z,95.70
2019-04-26T00:08:11.910Z,95.70
2019-04-26T00:11:00.166Z,95.60
2019-04-26T00:13:37.066Z,95.60
2019-04-26T00:16:26.053Z,95.60
2019-04-26T00:18:55.861Z,95.70
2019-04-26T00:21:25.545Z,95.60
2019-04-26T00:23:55.671Z,95.60
2019-04-26T00:26:25.824Z,95.50
2019-04-26T00:28:55.595Z,95.50
2019-04-26T00:31:25.216Z,95.20
2019-04-26T00:33:54.892Z,95.20
2019-04-26T00:36:24.526Z,94.90
2019-04-26T00:38:55.307Z,94.90
2019-04-26T00:41:25.260Z,94.80
2019-04-26T00:43:57.077Z,95.00
2019-04-26T00:46:28.856Z,95.10
2019-04-26T00:49:01.337Z,95.00
2019-04-26T00:51:31.915Z,95.10
2019-04-26T00:54:01.881Z,95.10
2019-04-26T00:56:32.231Z,95.30
2019-04-26T00:59:02.335Z,95.70
2019-04-26T01:01:35.414Z,95.90
2019-04-26T01:04:05.795Z,95.70
2019-04-26T01:06:37.679Z,95.60
2019-04-26T01:09:07.975Z,95.60
2019-04-26T01:11:39.299Z,95.60
2019-04-26T01:14:08.916Z,95.60
2019-04-26T01:16:38.916Z,95.50
2019-04-26T01:19:10.956Z,95.70
2019-04-26T01:21:46.040Z,95.70
2019-04-26T01:24:18.297Z,95.70
2019-04-26T01:26:51.163Z,96.20
2019-04-26T01:29:22.036Z,96.20
2019-04-26T01:32:04.011Z,96.30
2019-04-26T01:34:34.380Z,95.90
2019-04-26T01:37:04.480Z,95.90
2019-04-26T01:39:37.656Z,95.80
2019-04-26T01:42:30.299Z,96.50
2019-04-26T01:45:14.576Z,96.10
2019-04-26T01:47:46.724Z,96.40
2019-04-26T01:50:16.717Z,96.00
2019-04-26T01:52:47.748Z,96.30
2019-04-26T01:55:17.923Z,96.50
2019-04-26T01:57:47.695Z,96.70
2019-04-26T02:00:39.584Z,96.70
2019-04-26T02:03:19.536Z,96.70
2019-04-26T02:05:49.430Z,96.10
2019-04-26T02:08:19.474Z,96.20
2019-04-26T02:10:49.250Z,95.80
2019-04-26T02:13:19.153Z,96.00
2019-04-26T02:15:48.790Z,95.80
2019-04-26T02:18:18.531Z,96.00
2019-04-26T02:21:20.063Z,95.80
2019-04-26T02:23:56.168Z,95.60
2019-04-26T02:26:34.675Z,95.70
2019-04-26T02:29:08.326Z,95.60
2019-04-26T02:31:40.562Z,96.00
2019-04-26T02:34:11.087Z,95.40
2019-04-26T02:36:56.068Z,95.70
2019-04-26T02:39:17.927Z,95.50
2019-04-26T02:41:51.785Z,95.70
2019-04-26T02:44:29.050Z,95.90
2019-04-26T02:47:24.302Z,95.70
2019-04-26T02:49:57.492Z,96.00
2019-04-26T02:52:39.165Z,95.90
2019-04-26T02:55:16.080Z,96.00
2019-04-26T02:57:52.699Z,96.20
2019-04-26T03:00:22.470Z,96.10
2019-04-26T03:03:03.969Z,96.50
2019-04-26T03:05:39.329Z,96.50
2019-04-26T03:08:19.269Z,96.60
2019-04-26T03:11:02.142Z,96.70
2019-04-26T03:13:52.483Z,97.30
2019-04-26T03:16:41.511Z,97.00
2019-04-26T03:19:37.765Z,97.10
2019-04-26T03:22:34.903Z,97.40
2019-04-26T03:25:19.673Z,97.70
2019-04-26T03:28:04.740Z,97.30
2019-04-26T03:30:52.000Z,97.90
2019-04-26T03:33:58.158Z,97.50
2019-04-26T03:37:23.880Z,97.50
2019-04-26T03:40:11.154Z,97.90
2019-04-26T03:43:16.816Z,98.10
2019-04-26T03:46:14.871Z,98.00
2019-04-26T03:49:31.604Z,98.00
2019-04-26T03:52:26.284Z,99.90
2019-04-26T03:55:00.118Z,98.20
2019-04-26T03:57:46.145Z,98.00
2019-04-26T04:00:30.552Z,98.00
2019-04-26T04:03:29.616Z,98.00
2019-04-26T04:06:01.414Z,98.10
2019-04-26T04:08:59.732Z,98.30
2019-04-26T04:11:36.437Z,98.50
2019-04-26T04:14:13.944Z,98.40
2019-04-26T04:17:08.196Z,98.50
2019-04-26T04:20:14.932Z,98.50
2019-04-26T04:22:49.369Z,98.50
2019-04-26T04:25:26.139Z,99.10
2019-04-26T04:28:08.224Z,99.10
2019-04-26T04:30:57.183Z,99.40
2019-04-26T04:33:47.866Z,99.50
2019-04-26T04:36:25.054Z,99.50
2019-04-26T04:39:16.522Z,99.40
2019-04-26T04:42:14.134Z,99.20
2019-04-26T04:45:12.681Z,99.70
2019-04-26T04:47:59.054Z,99.50
2019-04-26T04:50:54.772Z,99.90
2019-04-26T04:53:49.722Z,99.80
2019-04-26T04:57:04.273Z,99.90
2019-04-26T04:59:48.532Z,99.90
2019-04-26T05:02:43.931Z,99.90
2019-04-26T05:05:47.357Z,99.90
2019-04-26T05:08:46.375Z,99.90
2019-04-26T05:11:35.931Z,99.90
2019-04-26T05:14:16.408Z,99.90
2019-04-26T18:13:18.278Z,99.90
2019-04-26T18:15:48.566Z,99.90
2019-04-26T18:18:36.218Z,99.90
2019-04-26T18:21:26.797Z,99.90
2019-04-26T18:23:57.242Z,99.90
2019-04-26T18:26:27.132Z,99.90
2019-04-26T18:28:57.096Z,99.90
2019-04-26T18:31:28.816Z,99.90
2019-04-26T18:34:00.657Z,99.90
2019-04-26T18:36:32.022Z,99.90
2019-04-26T18:39:03.733Z,99.90
2019-04-26T18:41:34.659Z,99.90
2019-04-26T18:44:05.189Z,99.90
2019-04-26T18:46:53.574Z,99.90
2019-04-26T18:49:26.966Z,99.90
2019-04-26T18:51:56.604Z,99.90
2019-04-26T18:54:47.862Z,99.90
2019-04-26T18:57:17.187Z,99.90
2019-04-26T18:59:51.523Z,99.90
2019-04-26T19:02:20.251Z,99.90
2019-04-26T19:04:49.871Z,99.90
2019-04-26T19:07:31.293Z,99.90
2019-04-26T19:10:02.860Z,99.90
2019-04-26T19:12:26.964Z,99.90
2019-04-26T19:15:07.529Z,99.90
2019-04-26T19:17:55.584Z,99.90
2019-04-26T19:20:32.719Z,99.90
2019-04-26T19:23:03.846Z,99.90
2019-04-26T19:25:40.533Z,99.90
2019-04-26T19:28:08.061Z,99.90
2019-04-26T19:30:39.923Z,99.90
2019-04-26T19:33:11.594Z,99.90
2019-04-26T19:35:44.012Z,99.90
2019-04-26T19:38:14.633Z,99.90
2019-04-26T19:40:47.645Z,99.90
2019-04-26T19:43:27.698Z,99.90
2019-04-26T19:46:04.754Z,99.90
2019-04-26T19:48:44.851Z,99.90
2019-04-26T19:51:32.696Z,99.90
2019-04-26T19:54:12.557Z,99.90
2019-04-26T19:56:51.303Z,99.90
2019-04-26T19:59:21.678Z,99.90
2019-04-26T20:01:55.177Z,99.90
2019-04-26T20:04:30.326Z,99.90
2019-04-26T20:06:55.499Z,99.90
2019-04-26T20:09:26.542Z,99.90
2019-04-26T20:11:57.971Z,99.90
2019-04-26T20:14:43.321Z,99.90
2019-04-26T20:16:59.145Z,99.90
2019-04-26T20:19:35.107Z,99.90
2019-04-26T20:22:01.928Z,99.90
2019-04-26T20:24:32.892Z,99.90
2019-04-26T20:27:03.549Z,99.90
2019-04-26T20:29:34.606Z,99.90
2019-04-26T20:32:24.023Z,99.90
2019-04-26T20:35:26.414Z,99.90
2019-04-26T20:37:52.125Z,99.90
2019-04-26T20:40:25.532Z,99.90
2019-04-26T20:43:01.979Z,99.90
2019-04-26T20:45:38.378Z,99.90
2019-04-26T20:47:57.092Z,99.90
2019-04-26T20:50:28.614Z,99.90
2019-04-26T20:53:00.825Z,99.90
2019-04-26T20:55:34.358Z,99.90
2019-04-26T20:58:06.970Z,99.90
2019-04-26T21:00:36.511Z,99.90
2019-04-26T21:03:06.113Z,99.90
2019-04-26T21:05:45.775Z,99.90
2019-04-26T21:08:07.492Z,99.90
2019-04-26T21:10:37.106Z,99.90
2019-04-26T21:13:06.745Z,99.90
2019-04-26T21:15:36.348Z,99.90
2019-04-26T21:18:06.034Z,99.90
2019-04-26T21:20:36.556Z,99.90
2019-04-26T21:23:06.454Z,99.90
2019-04-26T21:25:45.992Z,99.90
2019-04-26T21:28:22.181Z,99.90
2019-04-26T21:31:03.385Z,99.90
2019-04-26T21:33:38.988Z,99.90
2019-04-26T21:36:34.670Z,99.90
2019-04-26T21:39:23.416Z,99.90
2019-04-26T21:41:53.363Z,99.90
2019-04-26T21:44:22.963Z,99.90
2019-04-26T21:46:56.259Z,99.90
2019-04-26T21:49:24.370Z,99.90
2019-04-26T21:51:54.395Z,99.90
2019-04-26T21:54:25.246Z,99.90
2019-04-26T21:56:55.053Z,99.90
2019-04-26T21:59:24.677Z,99.90
2019-04-26T22:01:59.065Z,99.90
2019-04-26T22:04:28.837Z,99.90
2019-04-26T22:06:59.837Z,99.90
2019-04-26T22:09:46.159Z,99.90
2019-04-26T22:12:16.536Z,99.90
2019-04-26T22:14:50.791Z,99.90
2019-04-26T22:17:35.651Z,99.90
2019-04-26T22:20:13.084Z,99.90
2019-04-26T22:22:49.363Z,99.90
2019-04-26T22:25:20.792Z,99.90
2019-04-26T22:27:54.018Z,99.90
2019-04-26T22:30:28.261Z,99.90
2019-04-26T22:32:58.704Z,99.90
2019-04-26T22:35:28.381Z,99.90
2019-04-26T22:37:58.017Z,99.90
2019-04-26T22:40:27.983Z,99.90
2019-04-26T22:43:22.972Z,99.90
2019-04-26T22:46:02.904Z,99.90
2019-04-26T22:48:34.848Z,99.90
2019-04-26T22:51:04.796Z,99.90
2019-04-26T22:53:34.544Z,99.90
2019-04-26T22:56:05.224Z,99.90
2019-04-26T22:58:35.888Z,99.90
2019-04-26T23:01:06.333Z,99.90
2019-04-26T23:03:36.741Z,99.90
2019-04-26T23:06:11.634Z,99.90
2019-04-26T23:08:39.508Z,99.90
2019-04-26T23:11:10.699Z,99.90
2019-04-26T23:14:01.240Z,99.90
2019-04-26T23:17:01.483Z,99.90
2019-04-26T23:19:44.732Z,99.90
2019-04-26T23:22:14.442Z,99.90
2019-04-26T23:24:44.882Z,99.90
2019-04-26T23:27:20.497Z,99.90
2019-04-26T23:29:49.832Z,99.90
2019-04-26T23:32:20.005Z,99.90
2019-04-26T23:34:49.421Z,99.90
2019-04-26T23:37:19.375Z,99.90
2019-04-26T23:39:51.119Z,99.90
2019-04-26T23:42:20.955Z,99.90
2019-04-26T23:44:50.572Z,99.90
2019-04-26T23:47:22.981Z,99.90
2019-04-26T23:49:53.817Z,99.90
2019-04-26T23:52:24.489Z,99.90
2019-04-26T23:54:54.283Z,99.90
2019-04-26T23:57:27.332Z,99.90
2019-04-26T23:59:56.529Z,99.90
